« Back
NWS Peachtree City, Ga » Text Product » ATL Terminal Aerodrome Forecast


Printer-friendly Version
Current Version              Previous Versions:   1  2  3  4  5  6  7  8  9  

Terminal Aerodrome Forecast

470
FTUS42 KFFC 310540
TAFATL
TAF
KATL 310540Z 3106/0112 34005KT P6SM FEW150
     FM310800 03005KT P6SM FEW250
     FM311400 07006KT P6SM FEW050
     FM311800 34006KT P6SM SCT060
     FM010100 06004KT P6SM SCT100=



USA.gov is the U.S. government's official web portal to all federal, state and local government web resources and services.